sensor_id;sensor_type;location;lat;lon;timestamp;pressure;altitude;pressure_sealevel;temperature;humidity
49779;BME280;36217;60.232;24.776;2022-09-21T00:01:20;101567.12;;;8.83;72.56
49779;BME280;36217;60.232;24.776;2022-09-21T00:03:51;101565.05;;;8.95;72.78
49779;BME280;36217;60.232;24.776;2022-09-21T00:06:20;101565.16;;;8.95;73.12
49779;BME280;36217;60.232;24.776;2022-09-21T00:08:48;101565.75;;;8.45;73.09
49779;BME280;36217;60.232;24.776;2022-09-21T00:11:18;101565.91;;;8.94;72.91
49779;BME280;36217;60.232;24.776;2022-09-21T00:13:45;101569.79;;;8.75;72.56
49779;BME280;36217;60.232;24.776;2022-09-21T00:16:14;101571.18;;;8.62;72.86
49779;BME280;36217;60.232;24.776;2022-09-21T00:18:41;101573.83;;;8.67;73.50
49779;BME280;36217;60.232;24.776;2022-09-21T00:21:10;101576.42;;;8.51;73.01
49779;BME280;36217;60.232;24.776;2022-09-21T00:23:38;101579.87;;;8.49;73.21
49779;BME280;36217;60.232;24.776;2022-09-21T00:26:07;101586.40;;;8.64;73.49
49779;BME280;36217;60.232;24.776;2022-09-21T00:28:34;101590.53;;;8.31;73.68
49779;BME280;36217;60.232;24.776;2022-09-21T00:31:02;101587.23;;;8.66;73.29
49779;BME280;36217;60.232;24.776;2022-09-21T00:33:29;101591.92;;;8.54;73.64
49779;BME280;36217;60.232;24.776;2022-09-21T00:36:01;101594.34;;;8.27;73.64
49779;BME280;36217;60.232;24.776;2022-09-21T00:38:27;101596.14;;;8.38;73.06
49779;BME280;36217;60.232;24.776;2022-09-21T00:40:54;101594.48;;;8.68;73.12
49779;BME280;36217;60.232;24.776;2022-09-21T00:43:22;101592.97;;;8.32;73.42
49779;BME280;36217;60.232;24.776;2022-09-21T00:45:51;101598.25;;;8.65;73.19
49779;BME280;36217;60.232;24.776;2022-09-21T00:48:21;101598.31;;;8.58;73.34
49779;BME280;36217;60.232;24.776;2022-09-21T00:50:51;101600.21;;;8.67;72.96
49779;BME280;36217;60.232;24.776;2022-09-21T00:53:20;101599.95;;;8.51;73.51
49779;BME280;36217;60.232;24.776;2022-09-21T00:55:50;101603.13;;;8.41;73.82
49779;BME280;36217;60.232;24.776;2022-09-21T00:58:23;101605.05;;;7.88;73.91
49779;BME280;36217;60.232;24.776;2022-09-21T01:00:51;101607.31;;;8.53;73.41
49779;BME280;36217;60.232;24.776;2022-09-21T01:03:18;101608.18;;;8.44;73.49
49779;BME280;36217;60.232;24.776;2022-09-21T01:05:45;101608.32;;;8.49;73.34
49779;BME280;36217;60.232;24.776;2022-09-21T01:08:14;101609.36;;;8.43;73.27
49779;BME280;36217;60.232;24.776;2022-09-21T01:10:51;101607.80;;;8.17;73.20
49779;BME280;36217;60.232;24.776;2022-09-21T01:13:31;101611.92;;;8.03;73.80
49779;BME280;36217;60.232;24.776;2022-09-21T01:16:07;101614.13;;;8.29;73.77
49779;BME280;36217;60.232;24.776;2022-09-21T01:18:44;101613.64;;;8.20;74.16
49779;BME280;36217;60.232;24.776;2022-09-21T01:21:17;101614.78;;;8.30;73.80
49779;BME280;36217;60.232;24.776;2022-09-21T01:24:16;101615.69;;;8.20;73.92
49779;BME280;36217;60.232;24.776;2022-09-21T01:27:22;101618.67;;;8.22;73.93
49779;BME280;36217;60.232;24.776;2022-09-21T01:29:55;101619.65;;;8.30;73.45
49779;BME280;36217;60.232;24.776;2022-09-21T01:32:27;101621.55;;;8.23;73.73
49779;BME280;36217;60.232;24.776;2022-09-21T01:34:59;101622.87;;;8.11;73.94
49779;BME280;36217;60.232;24.776;2022-09-21T01:37:38;101624.01;;;8.12;73.94
49779;BME280;36217;60.232;24.776;2022-09-21T01:40:12;101626.90;;;8.08;74.05
49779;BME280;36217;60.232;24.776;2022-09-21T01:42:42;101629.85;;;8.06;74.33
49779;BME280;36217;60.232;24.776;2022-09-21T01:45:14;101632.94;;;8.15;73.64
49779;BME280;36217;60.232;24.776;2022-09-21T01:47:46;101634.71;;;8.13;73.86
49779;BME280;36217;60.232;24.776;2022-09-21T01:50:16;101635.49;;;8.23;74.23
49779;BME280;36217;60.232;24.776;2022-09-21T01:52:47;101634.68;;;7.93;74.41
49779;BME280;36217;60.232;24.776;2022-09-21T01:55:19;101638.64;;;7.97;74.24
49779;BME280;36217;60.232;24.776;2022-09-21T01:57:53;101641.43;;;8.00;74.04
49779;BME280;36217;60.232;24.776;2022-09-21T02:00:22;101644.69;;;8.10;73.76
49779;BME280;36217;60.232;24.776;2022-09-21T02:02:52;101646.83;;;8.01;73.86
49779;BME280;36217;60.232;24.776;2022-09-21T02:05:21;101651.21;;;7.81;73.67
49779;BME280;36217;60.232;24.776;2022-09-21T02:07:51;101652.48;;;7.90;74.10
49779;BME280;36217;60.232;24.776;2022-09-21T02:10:21;101652.77;;;7.94;74.03
49779;BME280;36217;60.232;24.776;2022-09-21T02:12:52;101656.12;;;7.87;74.06
49779;BME280;36217;60.232;24.776;2022-09-21T02:15:23;101661.34;;;7.85;74.01
49779;BME280;36217;60.232;24.776;2022-09-21T02:17:58;101667.31;;;7.75;74.45
49779;BME280;36217;60.232;24.776;2022-09-21T02:20:31;101667.77;;;7.78;74.35
49779;BME280;36217;60.232;24.776;2022-09-21T02:23:05;101669.27;;;7.83;73.96
49779;BME280;36217;60.232;24.776;2022-09-21T02:25:45;101671.73;;;8.22;74.03
49779;BME280;36217;60.232;24.776;2022-09-21T02:28:24;101672.07;;;7.89;73.62
49779;BME280;36217;60.232;24.776;2022-09-21T02:30:57;101672.95;;;7.77;73.69
49779;BME280;36217;60.232;24.776;2022-09-21T02:33:30;101679.05;;;7.65;74.14
49779;BME280;36217;60.232;24.776;2022-09-21T02:36:04;101681.60;;;8.15;74.21
49779;BME280;36217;60.232;24.776;2022-09-21T02:38:38;101684.89;;;7.71;73.84
49779;BME280;36217;60.232;24.776;2022-09-21T02:41:12;101690.15;;;7.68;74.03
49779;BME280;36217;60.232;24.776;2022-09-21T02:43:44;101690.56;;;7.71;73.61
49779;BME280;36217;60.232;24.776;2022-09-21T02:46:17;101692.39;;;7.58;74.05
49779;BME280;36217;60.232;24.776;2022-09-21T02:48:47;101694.89;;;7.54;74.25
49779;BME280;36217;60.232;24.776;2022-09-21T02:51:18;101697.09;;;7.47;74.50
49779;BME280;36217;60.232;24.776;2022-09-21T02:53:46;101697.63;;;7.53;74.19
49779;BME280;36217;60.232;24.776;2022-09-21T02:56:16;101701.11;;;8.05;74.02
49779;BME280;36217;60.232;24.776;2022-09-21T02:58:46;101702.09;;;7.73;74.23
49779;BME280;36217;60.232;24.776;2022-09-21T03:01:15;101702.57;;;7.61;73.91
49779;BME280;36217;60.232;24.776;2022-09-21T03:03:43;101702.64;;;7.58;73.91
49779;BME280;36217;60.232;24.776;2022-09-21T03:06:09;101707.18;;;8.01;74.07
49779;BME280;36217;60.232;24.776;2022-09-21T03:08:36;101710.51;;;7.93;74.24
49779;BME280;36217;60.232;24.776;2022-09-21T03:11:04;101709.18;;;7.69;74.14
49779;BME280;36217;60.232;24.776;2022-09-21T03:13:32;101710.63;;;7.40;74.31
49779;BME280;36217;60.232;24.776;2022-09-21T03:16:00;101712.30;;;7.95;73.99
49779;BME280;36217;60.232;24.776;2022-09-21T03:18:28;101716.15;;;7.84;74.30
49779;BME280;36217;60.232;24.776;2022-09-21T03:20:55;101715.59;;;7.88;74.08
49779;BME280;36217;60.232;24.776;2022-09-21T03:23:22;101717.36;;;7.81;74.46
49779;BME280;36217;60.232;24.776;2022-09-21T03:25:49;101717.47;;;7.55;74.44
49779;BME280;36217;60.232;24.776;2022-09-21T03:28:16;101718.85;;;7.36;74.24
49779;BME280;36217;60.232;24.776;2022-09-21T03:30:44;101722.20;;;7.86;74.11
49779;BME280;36217;60.232;24.776;2022-09-21T03:33:11;101722.19;;;7.58;74.01
49779;BME280;36217;60.232;24.776;2022-09-21T03:35:39;101723.34;;;7.80;74.26
49779;BME280;36217;60.232;24.776;2022-09-21T03:38:06;101726.54;;;7.76;74.34
49779;BME280;36217;60.232;24.776;2022-09-21T03:40:33;101727.99;;;7.43;73.88
49779;BME280;36217;60.232;24.776;2022-09-21T03:43:00;101730.95;;;7.75;74.35
49779;BME280;36217;60.232;24.776;2022-09-21T03:45:27;101734.05;;;7.82;73.91
49779;BME280;36217;60.232;24.776;2022-09-21T03:47:55;101735.44;;;7.55;73.93
49779;BME280;36217;60.232;24.776;2022-09-21T03:50:23;101737.91;;;7.75;74.16
49779;BME280;36217;60.232;24.776;2022-09-21T03:52:50;101739.76;;;7.65;74.49
49779;BME280;36217;60.232;24.776;2022-09-21T03:55:17;101740.21;;;7.41;74.23
49779;BME280;36217;60.232;24.776;2022-09-21T03:57:44;101743.03;;;7.25;74.17
49779;BME280;36217;60.232;24.776;2022-09-21T04:00:12;101744.52;;;7.23;74.15
49779;BME280;36217;60.232;24.776;2022-09-21T04:02:39;101746.06;;;7.74;74.06
49779;BME280;36217;60.232;24.776;2022-09-21T04:05:08;101747.71;;;7.72;74.11
49779;BME280;36217;60.232;24.776;2022-09-21T04:07:36;101750.78;;;7.50;73.76
49779;BME280;36217;60.232;24.776;2022-09-21T04:10:05;101751.47;;;7.76;73.93
49779;BME280;36217;60.232;24.776;2022-09-21T04:12:33;101752.83;;;7.39;74.19
49779;BME280;36217;60.232;24.776;2022-09-21T04:15:01;101753.70;;;7.57;74.63
49779;BME280;36217;60.232;24.776;2022-09-21T04:17:28;101752.06;;;7.75;73.91
49779;BME280;36217;60.232;24.776;2022-09-21T04:19:55;101755.65;;;7.68;74.29
49779;BME280;36217;60.232;24.776;2022-09-21T04:22:22;101757.38;;;7.84;73.80
49779;BME280;36217;60.232;24.776;2022-09-21T04:24:49;101758.43;;;7.91;73.51
49779;BME280;36217;60.232;24.776;2022-09-21T04:27:16;101762.66;;;7.98;73.24
49779;BME280;36217;60.232;24.776;2022-09-21T04:29:43;101761.33;;;8.12;73.06
49779;BME280;36217;60.232;24.776;2022-09-21T04:32:10;101759.61;;;7.91;72.75
49779;BME280;36217;60.232;24.776;2022-09-21T04:34:37;101760.16;;;8.25;72.93
49779;BME280;36217;60.232;24.776;2022-09-21T04:37:04;101764.51;;;8.28;72.59
49779;BME280;36217;60.232;24.776;2022-09-21T04:39:31;101773.47;;;8.16;73.15
49779;BME280;36217;60.232;24.776;2022-09-21T04:41:58;101774.64;;;7.82;73.44
49779;BME280;36217;60.232;24.776;2022-09-21T04:44:25;101773.92;;;7.80;74.40
49779;BME280;36217;60.232;24.776;2022-09-21T04:46:52;101780.62;;;8.24;74.29
49779;BME280;36217;60.232;24.776;2022-09-21T04:49:19;101782.68;;;8.14;74.30
49779;BME280;36217;60.232;24.776;2022-09-21T04:51:46;101786.19;;;7.76;74.99
49779;BME280;36217;60.232;24.776;2022-09-21T04:54:13;101787.80;;;7.80;74.68
49779;BME280;36217;60.232;24.776;2022-09-21T04:56:40;101785.31;;;7.86;75.43
49779;BME280;36217;60.232;24.776;2022-09-21T04:59:07;101787.97;;;7.54;74.86
49779;BME280;36217;60.232;24.776;2022-09-21T05:01:34;101790.66;;;7.91;75.00
49779;BME280;36217;60.232;24.776;2022-09-21T05:04:01;101796.18;;;7.87;75.09
49779;BME280;36217;60.232;24.776;2022-09-21T05:06:29;101795.23;;;7.79;75.30
49779;BME280;36217;60.232;24.776;2022-09-21T05:08:57;101800.24;;;8.03;74.72
49779;BME280;36217;60.232;24.776;2022-09-21T05:11:25;101803.66;;;7.73;74.08
49779;BME280;36217;60.232;24.776;2022-09-21T05:13:52;101806.88;;;8.03;74.85
49779;BME280;36217;60.232;24.776;2022-09-21T05:16:19;101810.19;;;8.21;74.43
49779;BME280;36217;60.232;24.776;2022-09-21T05:18:46;101812.70;;;7.91;74.09
49779;BME280;36217;60.232;24.776;2022-09-21T05:21:14;101813.32;;;8.43;73.79
49779;BME280;36217;60.232;24.776;2022-09-21T05:23:41;101815.29;;;8.18;73.81
49779;BME280;36217;60.232;24.776;2022-09-21T05:26:08;101809.93;;;8.67;73.32
49779;BME280;36217;60.232;24.776;2022-09-21T05:28:35;101812.68;;;7.85;73.38
49779;BME280;36217;60.232;24.776;2022-09-21T05:31:11;101813.71;;;8.18;73.17
49779;BME280;36217;60.232;24.776;2022-09-21T05:33:50;101813.28;;;8.49;72.24
49779;BME280;36217;60.232;24.776;2022-09-21T05:36:31;101814.83;;;8.60;71.95
49779;BME280;36217;60.232;24.776;2022-09-21T05:39:02;101817.63;;;8.78;71.52
49779;BME280;36217;60.232;24.776;2022-09-21T05:41:30;101817.98;;;9.10;70.38
49779;BME280;36217;60.232;24.776;2022-09-21T05:43:58;101816.92;;;8.71;70.04
49779;BME280;36217;60.232;24.776;2022-09-21T05:46:35;101821.45;;;8.69;69.91
49779;BME280;36217;60.232;24.776;2022-09-21T05:49:07;101823.38;;;9.36;68.73
49779;BME280;36217;60.232;24.776;2022-09-21T05:51:48;101826.92;;;9.15;69.59
49779;BME280;36217;60.232;24.776;2022-09-21T05:54:22;101830.13;;;9.11;69.89
49779;BME280;36217;60.232;24.776;2022-09-21T05:56:59;101838.31;;;9.79;67.86
49779;BME280;36217;60.232;24.776;2022-09-21T05:59:39;101835.74;;;9.74;68.04
49779;BME280;36217;60.232;24.776;2022-09-21T06:02:18;101837.53;;;10.14;67.00
49779;BME280;36217;60.232;24.776;2022-09-21T06:04:50;101838.86;;;9.77;66.82
49779;BME280;36217;60.232;24.776;2022-09-21T06:07:18;101841.23;;;10.07;66.62
49779;BME280;36217;60.232;24.776;2022-09-21T06:09:45;101842.65;;;9.99;66.77
49779;BME280;36217;60.232;24.776;2022-09-21T06:12:12;101844.57;;;10.27;66.20
49779;BME280;36217;60.232;24.776;2022-09-21T06:14:39;101845.71;;;10.15;66.52
49779;BME280;36217;60.232;24.776;2022-09-21T06:17:06;101850.99;;;10.45;65.75
49779;BME280;36217;60.232;24.776;2022-09-21T06:19:33;101849.33;;;10.16;66.29
49779;BME280;36217;60.232;24.776;2022-09-21T06:22:00;101854.21;;;10.26;66.56
49779;BME280;36217;60.232;24.776;2022-09-21T06:24:27;101855.70;;;10.44;66.15
49779;BME280;36217;60.232;24.776;2022-09-21T06:26:54;101855.26;;;10.34;65.96
49779;BME280;36217;60.232;24.776;2022-09-21T06:29:21;101853.18;;;10.81;65.38
49779;BME280;36217;60.232;24.776;2022-09-21T06:31:48;101856.83;;;10.86;65.26
49779;BME280;36217;60.232;24.776;2022-09-21T06:34:16;101859.73;;;10.93;65.26
49779;BME280;36217;60.232;24.776;2022-09-21T06:36:43;101860.57;;;10.07;67.18
49779;BME280;36217;60.232;24.776;2022-09-21T06:39:10;101861.12;;;10.82;65.96
49779;BME280;36217;60.232;24.776;2022-09-21T06:41:36;101863.52;;;10.87;65.54
49779;BME280;36217;60.232;24.776;2022-09-21T06:44:03;101864.72;;;10.80;65.18
49779;BME280;36217;60.232;24.776;2022-09-21T06:46:30;101864.24;;;10.64;65.47
49779;BME280;36217;60.232;24.776;2022-09-21T06:48:57;101867.06;;;10.31;66.33
49779;BME280;36217;60.232;24.776;2022-09-21T06:51:24;101864.95;;;11.15;65.34
49779;BME280;36217;60.232;24.776;2022-09-21T06:53:53;101865.72;;;10.53;65.95
49779;BME280;36217;60.232;24.776;2022-09-21T06:56:21;101863.09;;;10.42;65.99
49779;BME280;36217;60.232;24.776;2022-09-21T06:58:49;101866.76;;;10.39;66.46
49779;BME280;36217;60.232;24.776;2022-09-21T07:01:16;101869.97;;;10.97;64.93
49779;BME280;36217;60.232;24.776;2022-09-21T07:03:43;101868.50;;;10.55;67.37
49779;BME280;36217;60.232;24.776;2022-09-21T07:06:10;101869.85;;;11.51;65.44
49779;BME280;36217;60.232;24.776;2022-09-21T07:08:37;101876.68;;;11.15;66.88
49779;BME280;36217;60.232;24.776;2022-09-21T07:11:05;101880.90;;;11.09;65.92
49779;BME280;36217;60.232;24.776;2022-09-21T07:13:33;101878.75;;;11.15;65.76
49779;BME280;36217;60.232;24.776;2022-09-21T07:16:03;101879.28;;;11.36;65.60
49779;BME280;36217;60.232;24.776;2022-09-21T07:18:30;101876.05;;;10.99;68.47
49779;BME280;36217;60.232;24.776;2022-09-21T07:20:57;101880.21;;;12.06;63.36
49779;BME280;36217;60.232;24.776;2022-09-21T07:23:24;101873.84;;;11.33;65.43
49779;BME280;36217;60.232;24.776;2022-09-21T07:25:51;101880.87;;;11.18;65.36
49779;BME280;36217;60.232;24.776;2022-09-21T07:28:18;101877.76;;;10.89;65.48
49779;BME280;36217;60.232;24.776;2022-09-21T07:30:45;101888.78;;;11.10;65.03
49779;BME280;36217;60.232;24.776;2022-09-21T07:33:12;101887.23;;;11.23;64.99
49779;BME280;36217;60.232;24.776;2022-09-21T07:35:39;101883.98;;;10.82;65.84
49779;BME280;36217;60.232;24.776;2022-09-21T07:38:06;101884.57;;;10.97;65.13
49779;BME280;36217;60.232;24.776;2022-09-21T07:40:33;101883.00;;;10.79;65.97
49779;BME280;36217;60.232;24.776;2022-09-21T07:43:01;101880.66;;;11.25;64.88
49779;BME280;36217;60.232;24.776;2022-09-21T07:45:28;101885.47;;;11.96;64.06
49779;BME280;36217;60.232;24.776;2022-09-21T07:47:55;101886.24;;;10.95;66.81
49779;BME280;36217;60.232;24.776;2022-09-21T07:50:27;101887.61;;;11.00;66.56
49779;BME280;36217;60.232;24.776;2022-09-21T07:52:54;101891.82;;;11.38;65.83
49779;BME280;36217;60.232;24.776;2022-09-21T07:55:21;101883.89;;;11.37;65.02
49779;BME280;36217;60.232;24.776;2022-09-21T07:57:48;101887.33;;;10.74;66.35
49779;BME280;36217;60.232;24.776;2022-09-21T08:00:15;101883.18;;;11.52;65.24
49779;BME280;36217;60.232;24.776;2022-09-21T08:02:42;101883.18;;;11.15;65.43
49779;BME280;36217;60.232;24.776;2022-09-21T08:05:09;101884.11;;;11.85;64.24
49779;BME280;36217;60.232;24.776;2022-09-21T08:07:36;101883.86;;;11.29;65.17
49779;BME280;36217;60.232;24.776;2022-09-21T08:10:03;101885.57;;;11.83;66.25
49779;BME280;36217;60.232;24.776;2022-09-21T08:12:31;101892.17;;;12.28;64.22
49779;BME280;36217;60.232;24.776;2022-09-21T08:14:58;101887.19;;;11.08;66.08
49779;BME280;36217;60.232;24.776;2022-09-21T08:17:25;101887.23;;;11.56;65.22
49779;BME280;36217;60.232;24.776;2022-09-21T08:19:52;101888.91;;;11.10;65.33
49779;BME280;36217;60.232;24.776;2022-09-21T08:22:18;101897.71;;;12.15;64.89
49779;BME280;36217;60.232;24.776;2022-09-21T08:24:45;101900.86;;;11.66;64.17
49779;BME280;36217;60.232;24.776;2022-09-21T08:27:12;101904.01;;;12.31;63.82
49779;BME280;36217;60.232;24.776;2022-09-21T08:29:39;101901.46;;;11.81;63.23
49779;BME280;36217;60.232;24.776;2022-09-21T08:32:06;101900.84;;;12.26;64.40
49779;BME280;36217;60.232;24.776;2022-09-21T08:34:33;101903.34;;;12.34;66.09
49779;BME280;36217;60.232;24.776;2022-09-21T08:37:00;101911.71;;;12.80;63.20
49779;BME280;36217;60.232;24.776;2022-09-21T08:39:27;101908.89;;;12.47;61.43
49779;BME280;36217;60.232;24.776;2022-09-21T08:42:04;101904.60;;;12.11;62.70
49779;BME280;36217;60.232;24.776;2022-09-21T08:44:39;101909.39;;;12.08;62.32
49779;BME280;36217;60.232;24.776;2022-09-21T08:47:11;101910.74;;;12.74;60.12
49779;BME280;36217;60.232;24.776;2022-09-21T08:49:46;101909.95;;;12.53;60.46
49779;BME280;36217;60.232;24.776;2022-09-21T08:52:17;101904.37;;;12.36;60.84
49779;BME280;36217;60.232;24.776;2022-09-21T08:54:50;101906.90;;;12.58;60.57
49779;BME280;36217;60.232;24.776;2022-09-21T08:57:22;101903.68;;;11.49;61.95
49779;BME280;36217;60.232;24.776;2022-09-21T08:59:51;101910.25;;;12.21;59.74
49779;BME280;36217;60.232;24.776;2022-09-21T09:02:32;101903.50;;;11.88;60.46
49779;BME280;36217;60.232;24.776;2022-09-21T09:05:09;101900.83;;;12.77;59.46
49779;BME280;36217;60.232;24.776;2022-09-21T09:07:58;101899.40;;;12.62;61.13
49779;BME280;36217;60.232;24.776;2022-09-21T09:10:36;101904.18;;;12.64;59.42
49779;BME280;36217;60.232;24.776;2022-09-21T09:13:16;101899.05;;;12.88;58.66
49779;BME280;36217;60.232;24.776;2022-09-21T09:15:54;101903.17;;;12.95;58.60
49779;BME280;36217;60.232;24.776;2022-09-21T09:18:31;101903.57;;;12.90;58.77
49779;BME280;36217;60.232;24.776;2022-09-21T09:21:02;101903.36;;;12.87;58.32
49779;BME280;36217;60.232;24.776;2022-09-21T09:23:36;101904.13;;;13.54;56.69
49779;BME280;36217;60.232;24.776;2022-09-21T09:26:06;101906.34;;;12.93;58.10
49779;BME280;36217;60.232;24.776;2022-09-21T09:28:40;101904.82;;;12.19;58.83
49779;BME280;36217;60.232;24.776;2022-09-21T09:31:15;101907.65;;;12.49;57.99
49779;BME280;36217;60.232;24.776;2022-09-21T09:33:50;101906.32;;;13.28;56.85
49779;BME280;36217;60.232;24.776;2022-09-21T09:36:18;101907.16;;;13.06;57.06
49779;BME280;36217;60.232;24.776;2022-09-21T09:38:49;101900.95;;;13.74;56.04
49779;BME280;36217;60.232;24.776;2022-09-21T09:41:39;101907.45;;;12.62;58.42
49779;BME280;36217;60.232;24.776;2022-09-21T09:44:19;101905.03;;;12.72;59.65
49779;BME280;36217;60.232;24.776;2022-09-21T09:46:57;101911.38;;;12.81;59.23
49779;BME280;36217;60.232;24.776;2022-09-21T09:49:33;101918.06;;;13.20;58.93
49779;BME280;36217;60.232;24.776;2022-09-21T09:52:05;101914.68;;;13.11;59.01
49779;BME280;36217;60.232;24.776;2022-09-21T09:54:34;101918.13;;;13.04;59.27
49779;BME280;36217;60.232;24.776;2022-09-21T09:57:03;101917.70;;;12.79;58.57
49779;BME280;36217;60.232;24.776;2022-09-21T09:59:34;101915.48;;;12.94;58.04
49779;BME280;36217;60.232;24.776;2022-09-21T10:02:05;101915.34;;;13.08;58.04
49779;BME280;36217;60.232;24.776;2022-09-21T10:04:33;101914.84;;;13.06;57.76
49779;BME280;36217;60.232;24.776;2022-09-21T10:07:00;101917.87;;;13.33;57.76
49779;BME280;36217;60.232;24.776;2022-09-21T10:09:29;101917.36;;;12.83;57.73
49779;BME280;36217;60.232;24.776;2022-09-21T10:11:59;101920.91;;;12.55;58.74
49779;BME280;36217;60.232;24.776;2022-09-21T10:14:31;101918.94;;;12.83;58.08
49779;BME280;36217;60.232;24.776;2022-09-21T10:17:04;101919.19;;;12.82;56.96
49779;BME280;36217;60.232;24.776;2022-09-21T10:19:32;101913.63;;;12.93;56.70
49779;BME280;36217;60.232;24.776;2022-09-21T10:22:00;101913.34;;;13.14;56.39
49779;BME280;36217;60.232;24.776;2022-09-21T10:24:30;101906.36;;;13.07;55.55
49779;BME280;36217;60.232;24.776;2022-09-21T10:27:03;101913.30;;;12.75;57.96
49779;BME280;36217;60.232;24.776;2022-09-21T10:29:38;101914.65;;;12.97;58.17
49779;BME280;36217;60.232;24.776;2022-09-21T10:32:19;101917.94;;;12.80;58.16
49779;BME280;36217;60.232;24.776;2022-09-21T10:35:08;101918.27;;;13.22;57.27
49779;BME280;36217;60.232;24.776;2022-09-21T10:37:40;101917.48;;;12.99;58.80
49779;BME280;36217;60.232;24.776;2022-09-21T10:40:22;101921.60;;;13.35;58.26
49779;BME280;36217;60.232;24.776;2022-09-21T10:42:51;101920.11;;;13.67;55.98
49779;BME280;36217;60.232;24.776;2022-09-21T10:45:20;101921.41;;;13.55;56.55
49779;BME280;36217;60.232;24.776;2022-09-21T10:47:50;101922.57;;;13.52;58.39
49779;BME280;36217;60.232;24.776;2022-09-21T10:50:22;101922.61;;;13.81;57.77
49779;BME280;36217;60.232;24.776;2022-09-21T10:52:55;101922.47;;;13.99;57.07
49779;BME280;36217;60.232;24.776;2022-09-21T10:55:24;101920.61;;;13.63;57.37
49779;BME280;36217;60.232;24.776;2022-09-21T10:57:53;101920.26;;;13.56;57.83
49779;BME280;36217;60.232;24.776;2022-09-21T11:00:32;101925.92;;;14.27;56.85
49779;BME280;36217;60.232;24.776;2022-09-21T11:03:25;101924.99;;;14.06;56.39
49779;BME280;36217;60.232;24.776;2022-09-21T11:05:55;101924.40;;;13.78;55.94
49779;BME280;36217;60.232;24.776;2022-09-21T11:08:31;101921.63;;;14.34;56.08
49779;BME280;36217;60.232;24.776;2022-09-21T11:11:09;101926.34;;;14.00;53.96
49779;BME280;36217;60.232;24.776;2022-09-21T11:13:48;101930.97;;;13.48;55.62
49779;BME280;36217;60.232;24.776;2022-09-21T11:16:23;101926.89;;;13.73;55.19
49779;BME280;36217;60.232;24.776;2022-09-21T11:18:57;101932.00;;;13.23;55.16
49779;BME280;36217;60.232;24.776;2022-09-21T11:21:33;101924.31;;;13.63;54.13
49779;BME280;36217;60.232;24.776;2022-09-21T11:24:11;101921.13;;;13.67;54.43
49779;BME280;36217;60.232;24.776;2022-09-21T11:26:45;101926.82;;;13.38;55.06
49779;BME280;36217;60.232;24.776;2022-09-21T11:29:18;101926.33;;;13.84;54.20
49779;BME280;36217;60.232;24.776;2022-09-21T11:32:02;101924.43;;;13.61;56.26
49779;BME280;36217;60.232;24.776;2022-09-21T11:34:45;101926.88;;;14.11;53.84
49779;BME280;36217;60.232;24.776;2022-09-21T11:37:20;101928.05;;;13.34;54.49
49779;BME280;36217;60.232;24.776;2022-09-21T11:40:05;101927.09;;;13.74;53.44
49779;BME280;36217;60.232;24.776;2022-09-21T11:42:47;101927.42;;;13.85;53.33
49779;BME280;36217;60.232;24.776;2022-09-21T11:45:27;101928.97;;;13.69;53.36
49779;BME280;36217;60.232;24.776;2022-09-21T11:48:10;101932.97;;;14.07;52.52
49779;BME280;36217;60.232;24.776;2022-09-21T11:50:52;101933.79;;;13.64;54.02
49779;BME280;36217;60.232;24.776;2022-09-21T11:53:35;101934.59;;;13.66;52.28
49779;BME280;36217;60.232;24.776;2022-09-21T11:56:40;101936.65;;;13.69;52.88
49779;BME280;36217;60.232;24.776;2022-09-21T11:59:23;101937.79;;;13.69;52.17
49779;BME280;36217;60.232;24.776;2022-09-21T12:02:11;101930.79;;;14.12;49.11
49779;BME280;36217;60.232;24.776;2022-09-21T12:04:48;101930.27;;;14.16;48.66
49779;BME280;36217;60.232;24.776;2022-09-21T12:07:28;101926.16;;;13.76;49.75
49779;BME280;36217;60.232;24.776;2022-09-21T12:10:43;101926.83;;;13.60;52.86
49779;BME280;36217;60.232;24.776;2022-09-21T12:13:20;101931.85;;;13.80;50.51
49779;BME280;36217;60.232;24.776;2022-09-21T12:15:55;101932.08;;;13.78;50.24
49779;BME280;36217;60.232;24.776;2022-09-21T12:18:32;101936.31;;;13.60;50.16
49779;BME280;36217;60.232;24.776;2022-09-21T12:21:07;101936.45;;;13.76;49.87
49779;BME280;36217;60.232;24.776;2022-09-21T12:23:40;101934.41;;;14.27;48.36
49779;BME280;36217;60.232;24.776;2022-09-21T12:26:11;101932.87;;;15.77;57.13
49779;BME280;36217;60.232;24.776;2022-09-21T12:28:43;101934.06;;;16.75;55.65
49779;BME280;36217;60.232;24.776;2022-09-21T12:31:22;101936.19;;;17.07;53.83
49779;BME280;36217;60.232;24.776;2022-09-21T12:33:52;101938.75;;;17.41;52.89
49779;BME280;36217;60.232;24.776;2022-09-21T12:36:25;101939.86;;;17.24;51.71
49779;BME280;36217;60.232;24.776;2022-09-21T12:39:00;101938.41;;;17.58;51.80
49779;BME280;36217;60.232;24.776;2022-09-21T12:41:34;101937.56;;;17.97;50.42
49779;BME280;36217;60.232;24.776;2022-09-21T12:44:13;101938.25;;;18.35;49.41
49779;BME280;36217;60.232;24.776;2022-09-21T12:46:45;101941.73;;;18.04;48.87
49779;BME280;36217;60.232;24.776;2022-09-21T12:49:16;101941.07;;;17.75;49.12
49779;BME280;36217;60.232;24.776;2022-09-21T12:51:48;101939.17;;;18.53;47.76
49779;BME280;36217;60.232;24.776;2022-09-21T12:54:24;101936.75;;;17.98;48.05
49779;BME280;36217;60.232;24.776;2022-09-21T12:56:58;101936.07;;;18.60;46.75
49779;BME280;36217;60.232;24.776;2022-09-21T12:59:35;101933.11;;;18.60;46.70
49779;BME280;36217;60.232;24.776;2022-09-21T13:02:15;101932.71;;;18.71;45.67
49779;BME280;36217;60.232;24.776;2022-09-21T13:04:50;101932.87;;;18.77;45.37
49779;BME280;36217;60.232;24.776;2022-09-21T13:07:35;101930.96;;;18.80;45.08